Accueil
METAR-TAF:

METAR-TAF

Aéroports :

St Athan, Pays de Galles

latitude: 51-24N, longitude: 003-26W, altitude: 50 m

Observation

Le bulletin a été fait il y a 47 minutes, à 17:50 UTC
Vent 3 kt de nord-est
Température 12°C
Humidité 76%
Pression 1016 hPa
Visibilité 10 km ou plus

METAR: EGDX 171750Z AUTO 04003KT 9999 BKN080/// OVC160/// 12/08 Q1016

Heure: 19:37 (18:37 UTC)

Prévision

Le bulletin a été fait il y a 4 heures et 41 minutes, à 13:56 UTC
Prévision valable du 17 à 15 UTC au 17 à 18 UTC
Vent 5 kt de sud/sud-ouest
Visibilité 10 km ou plus
Quelques nuages à une hauteur de 3000 ft

TAF: EGDX 171356Z 1715/1718 20005KT 9999 FEW030

Observations et prévisions météorologiques de plus de 4000 aéroports (messages METAR et TAF).

Les stations disponibles sont représentées par des disques jaunes et rouges sur la carte.

Passer la souris dessus pour voir le nom de la station.

Cliquer dessus pour voir les observations et prévisions météorologiques.

Pour changer de carte: cliquez sur les boutons verts avec une croix noire pour zoomer, sur le bouton vert avec un tiret pour effectuer un zoom arrière, ou sur les flèches vertes pour les cartes adjacentes.


METAR-TAF: